Anco, KY

11:28 PM EDT on July 27, 2016 (GMT -0400)
Carroll | | Change Station
Active Advisory: Flash Flood Watch

Elev 1381 ft 37.59 °N, 83.31 °W | Updated 6 minutes ago

Light Thunderstorms and Rain
Light Thunderstorm Rain Mist
71 °F
Feels Like 71 °F
N
4
Wind Variable Wind from Variable

Today
High -- | Low -- °F
--% Chance of Precip.
Yesterday
High -- | Low -- °F
Precip. -- in
Pressure 30.03 in
Visibility 2.5 miles
Clouds Few 600 ft
Scattered Clouds 6000 ft
Overcast 10000 ft
Dew Point 69 °F
Humidity 93%
Rainfall 0.42 in
Snow Depth Not available.
6:33 AM 8:43 PM
Last Quarter, 36% visible
SPECI KJKL 280322Z AUTO VRB03KT 2 1/2SM -TSRA BR FEW006 SCT060 OVC100 22/21 A3003 RMK AO2 LTG DSNT S-W TSB09 P0003 T02170206
Pressure 30.03 in
Visibility 2.5 miles
Clouds Few 600 ft
Scattered Clouds 6000 ft
Overcast 10000 ft
Dew Point 69 °F
Humidity 93%
Rainfall 0.42 in
Snow Depth Not available.
6:33 AM 8:43 PM
Last Quarter, 36% visible
SPECI KJKL 280322Z AUTO VRB03KT 2 1/2SM -TSRA BR FEW006 SCT060 OVC100 22/21 A3003 RMK AO2 LTG DSNT S-W TSB09 P0003 T02170206

10-Day Weather Forecast

Almanac

Astronomy

Jul. 27, 2016 Rise Set
Actual Time
Civil Twilight
Nautical Twilight
Astronomical Twilight
Moon
Length of Visible Light
Length of Day
Tomorrow will be .
, % of the Moon is Illuminated

Today's Extremes

State Highs State Lows

Community

WunderPhotos

Upload Photos

1,928,037 photos uploaded!

WunderBlog® & News

Nearby

Air Quality

  Air Quality AQ Index Pollutant
Not available.

Snow Depth

Station Depth Elevation

Earthquake Activity

City Distance Mag. Time & Date
Minimum magnitude displayed is 2.5.

Coastal Water Temperatures

Place Temperature

Stations

Nearby Weather Stations

Station Location Temp. Windchill Dew Point Humidity Wind Precip. Elev Updated Type
                   

Watches & Warnings

Flash Flood Watch
Issued: 10:28 PM EDT Jul. 27, 2016 – National Weather Service

... Flash Flood Watch now in effect through early Friday
morning...

A Flash Flood Watch is now in effect for

* the following Kentucky counties. Bath... Elliott...
Estill... Fleming... Menifee... Montgomery... Powell... Rowan...
Johnson... Martin... Laurel... McCreary... Pulaski... Rockcastle...
Wayne... Whitley... Bell... Breathitt... Clay... Floyd... Harlan...
Jackson... Knott... Knox... Lee... Leslie... Letcher... Magoffin...
Morgan... Owsley... Perry... Pike... and Wolfe.

* It is valid through early Friday morning.

* Repeated rounds of thunderstorms area expected in a very moist
atmosphere. This will bring a threat for heavy rainfall... which
could result in flash flooding along creeks and small streams,
or in poor drainage areas.

Precautionary/preparedness actions...

A Flash Flood Watch means that conditions may develop that lead
to flash flooding. Flash flooding is a very dangerous situation.

You should monitor later forecasts and be prepared to take action
should flash flood warnings be issued.



Hal